sensor_id;sensor_type;location;lat;lon;timestamp;pressure;altitude;pressure_sealevel;temperature;humidity
11808;BME280;5961;42.640;23.380;2022-12-15T00:00:53;93115.84;;;2.89;100.00
11808;BME280;5961;42.640;23.380;2022-12-15T00:03:38;93135.91;;;2.93;100.00
11808;BME280;5961;42.640;23.380;2022-12-15T00:06:22;93115.25;;;2.92;100.00
11808;BME280;5961;42.640;23.380;2022-12-15T00:09:06;93138.25;;;2.95;100.00
11808;BME280;5961;42.640;23.380;2022-12-15T00:11:50;93115.06;;;2.88;100.00
11808;BME280;5961;42.640;23.380;2022-12-15T00:14:34;93124.19;;;2.91;100.00
11808;BME280;5961;42.640;23.380;2022-12-15T00:17:19;93138.53;;;2.93;100.00
11808;BME280;5961;42.640;23.380;2022-12-15T00:20:03;93169.72;;;2.95;100.00
11808;BME280;5961;42.640;23.380;2022-12-15T00:22:48;93154.28;;;2.93;100.00
11808;BME280;5961;42.640;23.380;2022-12-15T00:25:32;93174.66;;;2.88;100.00
11808;BME280;5961;42.640;23.380;2022-12-15T00:28:16;93190.53;;;2.83;100.00
11808;BME280;5961;42.640;23.380;2022-12-15T00:31:00;93208.75;;;2.88;100.00
11808;BME280;5961;42.640;23.380;2022-12-15T00:33:45;93221.41;;;2.86;100.00
11808;BME280;5961;42.640;23.380;2022-12-15T00:36:29;93228.22;;;2.87;100.00
11808;BME280;5961;42.640;23.380;2022-12-15T00:39:13;93217.84;;;2.82;100.00
11808;BME280;5961;42.640;23.380;2022-12-15T00:41:40;93219.25;;;2.88;100.00
11808;BME280;5961;42.640;23.380;2022-12-15T00:44:06;93205.81;;;2.81;100.00
11808;BME280;5961;42.640;23.380;2022-12-15T00:46:34;93189.78;;;2.91;100.00
11808;BME280;5961;42.640;23.380;2022-12-15T00:49:20;93192.41;;;2.91;100.00
11808;BME280;5961;42.640;23.380;2022-12-15T00:52:04;93193.34;;;2.95;100.00
11808;BME280;5961;42.640;23.380;2022-12-15T00:54:48;93171.13;;;2.92;100.00
11808;BME280;5961;42.640;23.380;2022-12-15T00:57:32;93168.31;;;2.89;100.00
11808;BME280;5961;42.640;23.380;2022-12-15T01:00:16;93168.50;;;2.92;100.00
11808;BME280;5961;42.640;23.380;2022-12-15T01:03:00;93168.00;;;2.82;100.00
11808;BME280;5961;42.640;23.380;2022-12-15T01:05:45;93165.53;;;2.85;100.00
11808;BME280;5961;42.640;23.380;2022-12-15T01:08:30;93182.34;;;2.84;100.00
11808;BME280;5961;42.640;23.380;2022-12-15T01:11:13;93167.50;;;2.71;100.00
11808;BME280;5961;42.640;23.380;2022-12-15T01:13:57;93139.28;;;2.76;100.00
11808;BME280;5961;42.640;23.380;2022-12-15T01:16:41;93148.81;;;2.72;100.00
11808;BME280;5961;42.640;23.380;2022-12-15T01:19:25;93141.72;;;2.64;100.00
11808;BME280;5961;42.640;23.380;2022-12-15T01:22:10;93119.97;;;2.64;100.00
11808;BME280;5961;42.640;23.380;2022-12-15T01:24:37;93147.34;;;2.41;100.00
11808;BME280;5961;42.640;23.380;2022-12-15T01:27:04;93145.69;;;2.53;100.00
11808;BME280;5961;42.640;23.380;2022-12-15T01:29:30;93124.13;;;2.56;100.00
11808;BME280;5961;42.640;23.380;2022-12-15T01:31:57;93144.59;;;2.54;100.00
11808;BME280;5961;42.640;23.380;2022-12-15T01:34:24;93122.06;;;2.45;100.00
11808;BME280;5961;42.640;23.380;2022-12-15T01:36:50;93132.44;;;2.58;100.00
11808;BME280;5961;42.640;23.380;2022-12-15T01:39:18;93147.22;;;2.54;100.00
11808;BME280;5961;42.640;23.380;2022-12-15T01:41:45;93147.25;;;2.63;100.00
11808;BME280;5961;42.640;23.380;2022-12-15T01:44:16;93166.38;;;2.63;100.00
11808;BME280;5961;42.640;23.380;2022-12-15T01:46:43;93131.06;;;2.69;100.00
11808;BME280;5961;42.640;23.380;2022-12-15T01:49:13;93122.72;;;2.59;100.00
11808;BME280;5961;42.640;23.380;2022-12-15T01:51:43;93130.56;;;2.50;100.00
11808;BME280;5961;42.640;23.380;2022-12-15T01:54:14;93097.81;;;2.39;100.00
11808;BME280;5961;42.640;23.380;2022-12-15T01:56:45;93090.44;;;2.41;100.00
11808;BME280;5961;42.640;23.380;2022-12-15T01:59:15;93135.94;;;2.45;100.00
11808;BME280;5961;42.640;23.380;2022-12-15T02:01:44;93087.50;;;2.51;100.00
11808;BME280;5961;42.640;23.380;2022-12-15T02:04:11;93069.47;;;2.41;100.00
11808;BME280;5961;42.640;23.380;2022-12-15T02:06:38;93102.00;;;2.40;100.00
11808;BME280;5961;42.640;23.380;2022-12-15T02:09:04;93078.44;;;2.57;100.00
11808;BME280;5961;42.640;23.380;2022-12-15T02:11:44;93069.94;;;2.60;100.00
11808;BME280;5961;42.640;23.380;2022-12-15T02:14:20;93097.28;;;2.59;100.00
11808;BME280;5961;42.640;23.380;2022-12-15T02:17:00;93055.75;;;2.53;100.00
11808;BME280;5961;42.640;23.380;2022-12-15T02:19:44;93069.03;;;2.56;100.00
11808;BME280;5961;42.640;23.380;2022-12-15T02:22:23;93058.56;;;2.56;100.00
11808;BME280;5961;42.640;23.380;2022-12-15T02:28:20;93035.25;;;2.63;100.00
11808;BME280;5961;42.640;23.380;2022-12-15T02:30:53;93029.69;;;2.56;100.00
11808;BME280;5961;42.640;23.380;2022-12-15T02:33:43;93012.25;;;2.69;100.00
11808;BME280;5961;42.640;23.380;2022-12-15T02:36:15;93037.41;;;2.70;100.00
11808;BME280;5961;42.640;23.380;2022-12-15T02:38:42;93020.16;;;2.78;100.00
11808;BME280;5961;42.640;23.380;2022-12-15T02:41:29;93011.19;;;2.78;100.00
11808;BME280;5961;42.640;23.380;2022-12-15T02:43:58;93041.28;;;2.81;100.00
11808;BME280;5961;42.640;23.380;2022-12-15T02:46:32;93024.78;;;2.81;100.00
11808;BME280;5961;42.640;23.380;2022-12-15T02:49:06;93044.22;;;2.88;100.00
11808;BME280;5961;42.640;23.380;2022-12-15T02:51:48;93054.88;;;2.92;100.00
11808;BME280;5961;42.640;23.380;2022-12-15T02:54:34;93045.91;;;2.84;100.00
11808;BME280;5961;42.640;23.380;2022-12-15T02:57:09;93088.66;;;2.85;100.00
11808;BME280;5961;42.640;23.380;2022-12-15T02:59:41;93085.75;;;2.86;100.00
11808;BME280;5961;42.640;23.380;2022-12-15T03:02:12;93077.41;;;2.84;100.00
11808;BME280;5961;42.640;23.380;2022-12-15T03:04:41;93093.13;;;2.84;100.00
11808;BME280;5961;42.640;23.380;2022-12-15T03:07:09;93059.69;;;2.90;100.00
11808;BME280;5961;42.640;23.380;2022-12-15T03:09:36;93085.31;;;2.93;100.00
11808;BME280;5961;42.640;23.380;2022-12-15T03:12:03;93086.38;;;2.92;100.00
11808;BME280;5961;42.640;23.380;2022-12-15T03:14:30;93075.72;;;2.97;100.00
11808;BME280;5961;42.640;23.380;2022-12-15T03:16:57;93084.06;;;2.99;100.00
11808;BME280;5961;42.640;23.380;2022-12-15T03:19:25;93074.03;;;3.01;100.00
11808;BME280;5961;42.640;23.380;2022-12-15T03:21:52;93069.41;;;2.98;100.00
11808;BME280;5961;42.640;23.380;2022-12-15T03:24:19;93090.06;;;2.99;100.00
11808;BME280;5961;42.640;23.380;2022-12-15T03:26:45;93089.78;;;3.01;100.00
11808;BME280;5961;42.640;23.380;2022-12-15T03:29:14;93058.44;;;2.96;100.00
11808;BME280;5961;42.640;23.380;2022-12-15T03:31:41;93068.47;;;2.94;100.00
11808;BME280;5961;42.640;23.380;2022-12-15T03:34:08;93075.09;;;2.91;100.00
11808;BME280;5961;42.640;23.380;2022-12-15T03:36:36;93070.63;;;2.83;100.00
11808;BME280;5961;42.640;23.380;2022-12-15T03:39:04;93041.91;;;2.87;100.00
11808;BME280;5961;42.640;23.380;2022-12-15T03:41:30;93083.88;;;2.78;100.00
11808;BME280;5961;42.640;23.380;2022-12-15T03:43:57;93068.91;;;2.78;100.00
11808;BME280;5961;42.640;23.380;2022-12-15T03:46:24;93060.72;;;2.71;100.00
11808;BME280;5961;42.640;23.380;2022-12-15T03:48:51;93069.06;;;2.73;100.00
11808;BME280;5961;42.640;23.380;2022-12-15T03:51:18;93084.34;;;2.71;100.00
11808;BME280;5961;42.640;23.380;2022-12-15T03:53:46;93086.78;;;2.59;100.00
11808;BME280;5961;42.640;23.380;2022-12-15T03:56:14;93125.03;;;2.60;100.00
11808;BME280;5961;42.640;23.380;2022-12-15T03:58:41;93106.38;;;2.53;100.00
11808;BME280;5961;42.640;23.380;2022-12-15T04:01:10;93095.38;;;2.51;100.00
11808;BME280;5961;42.640;23.380;2022-12-15T04:03:37;93109.78;;;2.62;100.00
11808;BME280;5961;42.640;23.380;2022-12-15T04:06:03;93114.84;;;2.59;100.00
11808;BME280;5961;42.640;23.380;2022-12-15T04:08:30;93126.44;;;2.66;100.00
11808;BME280;5961;42.640;23.380;2022-12-15T04:10:58;93127.50;;;2.57;100.00
11808;BME280;5961;42.640;23.380;2022-12-15T04:13:25;93148.34;;;2.62;100.00
11808;BME280;5961;42.640;23.380;2022-12-15T04:15:51;93139.25;;;2.59;100.00
11808;BME280;5961;42.640;23.380;2022-12-15T04:18:18;93148.78;;;2.55;100.00
11808;BME280;5961;42.640;23.380;2022-12-15T04:20:45;93154.84;;;2.64;100.00
11808;BME280;5961;42.640;23.380;2022-12-15T04:23:12;93169.34;;;2.62;100.00
11808;BME280;5961;42.640;23.380;2022-12-15T04:25:38;93145.13;;;2.65;100.00
11808;BME280;5961;42.640;23.380;2022-12-15T04:28:24;93150.66;;;2.63;100.00
11808;BME280;5961;42.640;23.380;2022-12-15T04:31:09;93146.50;;;2.62;100.00
11808;BME280;5961;42.640;23.380;2022-12-15T04:33:55;93150.69;;;2.72;100.00
11808;BME280;5961;42.640;23.380;2022-12-15T04:36:42;93139.88;;;2.65;100.00
11808;BME280;5961;42.640;23.380;2022-12-15T04:39:28;93137.84;;;2.62;100.00
11808;BME280;5961;42.640;23.380;2022-12-15T04:42:12;93128.88;;;2.63;100.00
11808;BME280;5961;42.640;23.380;2022-12-15T04:45:01;93132.44;;;2.58;100.00
11808;BME280;5961;42.640;23.380;2022-12-15T04:47:45;93125.38;;;2.67;100.00
11808;BME280;5961;42.640;23.380;2022-12-15T04:50:30;93089.88;;;2.61;100.00
11808;BME280;5961;42.640;23.380;2022-12-15T04:53:15;93109.28;;;2.60;100.00
11808;BME280;5961;42.640;23.380;2022-12-15T04:56:00;93138.94;;;2.69;100.00
11808;BME280;5961;42.640;23.380;2022-12-15T04:58:44;93101.44;;;2.69;100.00
11808;BME280;5961;42.640;23.380;2022-12-15T05:01:30;93112.53;;;2.66;100.00
11808;BME280;5961;42.640;23.380;2022-12-15T05:04:14;93140.50;;;2.70;100.00
11808;BME280;5961;42.640;23.380;2022-12-15T05:06:58;93147.31;;;2.71;100.00
11808;BME280;5961;42.640;23.380;2022-12-15T05:09:42;93162.91;;;2.76;100.00
11808;BME280;5961;42.640;23.380;2022-12-15T05:12:26;93167.69;;;2.83;100.00
11808;BME280;5961;42.640;23.380;2022-12-15T05:15:10;93181.91;;;2.91;100.00
11808;BME280;5961;42.640;23.380;2022-12-15T05:17:56;93181.91;;;2.91;100.00
11808;BME280;5961;42.640;23.380;2022-12-15T05:20:40;93200.28;;;2.99;100.00
11808;BME280;5961;42.640;23.380;2022-12-15T05:23:24;93207.88;;;3.01;100.00
11808;BME280;5961;42.640;23.380;2022-12-15T05:26:09;93228.28;;;3.04;100.00
11808;BME280;5961;42.640;23.380;2022-12-15T05:28:53;93227.19;;;3.05;100.00
11808;BME280;5961;42.640;23.380;2022-12-15T05:31:37;93241.84;;;3.06;100.00
11808;BME280;5961;42.640;23.380;2022-12-15T05:34:18;93243.41;;;3.07;100.00
11808;BME280;5961;42.640;23.380;2022-12-15T05:36:45;93234.47;;;3.08;100.00
11808;BME280;5961;42.640;23.380;2022-12-15T05:39:11;93241.72;;;3.11;100.00
11808;BME280;5961;42.640;23.380;2022-12-15T05:41:38;93274.66;;;3.17;100.00
11808;BME280;5961;42.640;23.380;2022-12-15T05:44:05;93269.84;;;3.19;100.00
11808;BME280;5961;42.640;23.380;2022-12-15T05:46:32;93276.31;;;3.13;100.00
11808;BME280;5961;42.640;23.380;2022-12-15T05:49:02;93281.59;;;3.21;100.00
11808;BME280;5961;42.640;23.380;2022-12-15T05:51:30;93289.78;;;3.20;100.00
11808;BME280;5961;42.640;23.380;2022-12-15T05:53:57;93296.28;;;3.22;100.00
11808;BME280;5961;42.640;23.380;2022-12-15T05:56:26;93304.34;;;3.26;100.00
11808;BME280;5961;42.640;23.380;2022-12-15T05:58:54;93310.19;;;3.23;100.00
11808;BME280;5961;42.640;23.380;2022-12-15T06:01:21;93314.63;;;3.14;100.00
11808;BME280;5961;42.640;23.380;2022-12-15T06:03:47;93330.25;;;3.19;100.00
11808;BME280;5961;42.640;23.380;2022-12-15T06:06:14;93328.34;;;3.11;100.00
11808;BME280;5961;42.640;23.380;2022-12-15T06:08:43;93350.91;;;3.12;100.00
11808;BME280;5961;42.640;23.380;2022-12-15T06:11:11;93347.44;;;3.03;100.00
11808;BME280;5961;42.640;23.380;2022-12-15T06:13:37;93343.91;;;2.99;100.00
11808;BME280;5961;42.640;23.380;2022-12-15T06:16:06;93345.91;;;3.02;100.00
11808;BME280;5961;42.640;23.380;2022-12-15T06:18:35;93342.19;;;3.03;100.00
11808;BME280;5961;42.640;23.380;2022-12-15T06:21:04;93349.00;;;3.04;100.00
11808;BME280;5961;42.640;23.380;2022-12-15T06:23:32;93355.22;;;3.08;100.00
11808;BME280;5961;42.640;23.380;2022-12-15T06:26:07;93360.50;;;2.86;100.00
11808;BME280;5961;42.640;23.380;2022-12-15T06:28:34;93363.19;;;3.03;100.00
11808;BME280;5961;42.640;23.380;2022-12-15T06:31:03;93363.69;;;3.05;100.00
11808;BME280;5961;42.640;23.380;2022-12-15T06:33:30;93363.09;;;3.08;100.00
11808;BME280;5961;42.640;23.380;2022-12-15T06:36:00;93366.47;;;3.08;100.00
11808;BME280;5961;42.640;23.380;2022-12-15T06:38:27;93375.00;;;3.14;100.00
11808;BME280;5961;42.640;23.380;2022-12-15T06:40:54;93373.63;;;3.16;100.00
11808;BME280;5961;42.640;23.380;2022-12-15T06:43:22;93384.72;;;3.13;100.00
11808;BME280;5961;42.640;23.380;2022-12-15T06:45:49;93386.13;;;3.11;100.00
11808;BME280;5961;42.640;23.380;2022-12-15T06:48:17;93387.53;;;3.17;100.00
11808;BME280;5961;42.640;23.380;2022-12-15T06:50:44;93385.06;;;3.20;100.00
11808;BME280;5961;42.640;23.380;2022-12-15T06:53:11;93392.78;;;3.17;100.00
11808;BME280;5961;42.640;23.380;2022-12-15T06:55:38;93380.88;;;3.11;100.00
11808;BME280;5961;42.640;23.380;2022-12-15T06:58:04;93382.75;;;3.19;100.00
11808;BME280;5961;42.640;23.380;2022-12-15T07:00:34;93373.59;;;3.08;100.00
11808;BME280;5961;42.640;23.380;2022-12-15T07:03:02;93405.78;;;3.22;100.00
11808;BME280;5961;42.640;23.380;2022-12-15T07:05:28;93408.22;;;3.18;100.00
11808;BME280;5961;42.640;23.380;2022-12-15T07:07:55;93402.78;;;3.15;100.00
11808;BME280;5961;42.640;23.380;2022-12-15T07:10:22;93392.28;;;3.15;100.00
11808;BME280;5961;42.640;23.380;2022-12-15T07:12:48;93411.97;;;3.26;100.00
11808;BME280;5961;42.640;23.380;2022-12-15T07:15:15;93420.97;;;3.33;100.00
11808;BME280;5961;42.640;23.380;2022-12-15T07:17:43;93428.19;;;3.28;100.00
11808;BME280;5961;42.640;23.380;2022-12-15T07:20:11;93422.34;;;3.31;100.00
11808;BME280;5961;42.640;23.380;2022-12-15T07:22:37;93431.03;;;3.40;100.00
11808;BME280;5961;42.640;23.380;2022-12-15T07:25:05;93438.31;;;3.43;100.00
11808;BME280;5961;42.640;23.380;2022-12-15T07:27:32;93452.41;;;3.47;100.00
11808;BME280;5961;42.640;23.380;2022-12-15T07:29:59;93430.44;;;3.43;100.00
11808;BME280;5961;42.640;23.380;2022-12-15T07:32:26;93436.66;;;3.47;100.00
11808;BME280;5961;42.640;23.380;2022-12-15T07:34:54;93456.94;;;3.55;100.00
11808;BME280;5961;42.640;23.380;2022-12-15T07:37:20;93453.09;;;3.61;100.00
11808;BME280;5961;42.640;23.380;2022-12-15T07:39:47;93458.69;;;3.68;100.00
11808;BME280;5961;42.640;23.380;2022-12-15T07:42:14;93459.94;;;3.71;100.00
11808;BME280;5961;42.640;23.380;2022-12-15T07:44:41;93466.00;;;3.80;100.00
11808;BME280;5961;42.640;23.380;2022-12-15T07:47:07;93462.94;;;3.86;100.00
11808;BME280;5961;42.640;23.380;2022-12-15T07:49:34;93460.16;;;3.92;100.00
11808;BME280;5961;42.640;23.380;2022-12-15T07:52:02;93467.72;;;3.93;100.00
11808;BME280;5961;42.640;23.380;2022-12-15T07:54:29;93469.47;;;3.98;100.00
11808;BME280;5961;42.640;23.380;2022-12-15T07:56:56;93468.72;;;4.06;100.00
11808;BME280;5961;42.640;23.380;2022-12-15T07:59:24;93481.13;;;4.14;100.00
11808;BME280;5961;42.640;23.380;2022-12-15T08:01:51;93488.56;;;4.20;100.00
11808;BME280;5961;42.640;23.380;2022-12-15T08:04:17;93483.16;;;4.25;100.00
11808;BME280;5961;42.640;23.380;2022-12-15T08:06:44;93492.31;;;4.28;100.00
11808;BME280;5961;42.640;23.380;2022-12-15T08:09:12;93496.19;;;4.39;100.00
11808;BME280;5961;42.640;23.380;2022-12-15T08:11:39;93508.13;;;4.45;100.00
11808;BME280;5961;42.640;23.380;2022-12-15T08:14:06;93509.53;;;4.51;100.00
11808;BME280;5961;42.640;23.380;2022-12-15T08:16:33;93505.66;;;4.57;100.00
11808;BME280;5961;42.640;23.380;2022-12-15T08:19:00;93505.53;;;4.62;100.00
11808;BME280;5961;42.640;23.380;2022-12-15T08:21:27;93499.16;;;4.63;100.00
11808;BME280;5961;42.640;23.380;2022-12-15T08:23:55;93491.75;;;4.65;100.00
11808;BME280;5961;42.640;23.380;2022-12-15T08:26:23;93510.50;;;4.72;100.00
11808;BME280;5961;42.640;23.380;2022-12-15T08:28:50;93507.41;;;4.79;100.00
11808;BME280;5961;42.640;23.380;2022-12-15T08:31:18;93535.44;;;4.83;100.00
11808;BME280;5961;42.640;23.380;2022-12-15T08:33:46;93518.25;;;4.86;100.00
11808;BME280;5961;42.640;23.380;2022-12-15T08:36:15;93527.22;;;4.93;100.00
11808;BME280;5961;42.640;23.380;2022-12-15T08:38:43;93527.72;;;4.95;100.00
11808;BME280;5961;42.640;23.380;2022-12-15T08:41:12;93529.25;;;4.96;100.00
11808;BME280;5961;42.640;23.380;2022-12-15T08:43:41;93533.59;;;5.01;100.00
11808;BME280;5961;42.640;23.380;2022-12-15T08:46:09;93499.50;;;4.79;100.00
11808;BME280;5961;42.640;23.380;2022-12-15T08:48:37;93537.03;;;5.02;100.00
11808;BME280;5961;42.640;23.380;2022-12-15T08:51:04;93537.94;;;5.06;100.00
11808;BME280;5961;42.640;23.380;2022-12-15T08:53:31;93528.19;;;5.06;100.00
11808;BME280;5961;42.640;23.380;2022-12-15T08:56:01;93529.56;;;5.04;100.00
11808;BME280;5961;42.640;23.380;2022-12-15T08:58:27;93528.19;;;5.06;100.00
11808;BME280;5961;42.640;23.380;2022-12-15T09:00:59;93541.81;;;5.08;100.00
11808;BME280;5961;42.640;23.380;2022-12-15T09:03:26;93535.16;;;5.11;100.00
11808;BME280;5961;42.640;23.380;2022-12-15T09:05:53;93527.09;;;5.16;100.00
11808;BME280;5961;42.640;23.380;2022-12-15T09:08:21;93527.56;;;5.18;100.00
11808;BME280;5961;42.640;23.380;2022-12-15T09:10:48;93526.63;;;5.22;100.00
11808;BME280;5961;42.640;23.380;2022-12-15T09:13:15;93540.59;;;5.31;100.00
11808;BME280;5961;42.640;23.380;2022-12-15T09:15:42;93521.66;;;5.21;100.00
11808;BME280;5961;42.640;23.380;2022-12-15T09:18:11;93530.03;;;5.31;100.00
11808;BME280;5961;42.640;23.380;2022-12-15T09:20:38;93532.34;;;5.33;100.00
11808;BME280;5961;42.640;23.380;2022-12-15T09:23:04;93532.19;;;5.38;100.00
11808;BME280;5961;42.640;23.380;2022-12-15T09:25:31;93530.47;;;5.42;100.00
11808;BME280;5961;42.640;23.380;2022-12-15T09:27:58;93534.19;;;5.41;100.00
11808;BME280;5961;42.640;23.380;2022-12-15T09:30:25;93539.31;;;5.46;100.00
11808;BME280;5961;42.640;23.380;2022-12-15T09:32:52;93532.50;;;5.45;100.00
11808;BME280;5961;42.640;23.380;2022-12-15T09:35:20;93545.22;;;5.43;100.00
11808;BME280;5961;42.640;23.380;2022-12-15T09:37:46;93542.13;;;5.49;100.00
11808;BME280;5961;42.640;23.380;2022-12-15T09:40:14;93548.13;;;5.50;100.00
11808;BME280;5961;42.640;23.380;2022-12-15T09:42:40;93546.63;;;5.49;100.00
11808;BME280;5961;42.640;23.380;2022-12-15T09:45:14;93550.47;;;5.60;100.00
11808;BME280;5961;42.640;23.380;2022-12-15T09:47:50;93541.94;;;5.63;100.00
11808;BME280;5961;42.640;23.380;2022-12-15T09:50:25;93550.44;;;5.69;100.00
11808;BME280;5961;42.640;23.380;2022-12-15T09:52:55;93538.38;;;5.68;100.00
11808;BME280;5961;42.640;23.380;2022-12-15T09:55:25;93529.19;;;5.65;100.00
11808;BME280;5961;42.640;23.380;2022-12-15T09:57:54;93559.91;;;5.78;100.00
11808;BME280;5961;42.640;23.380;2022-12-15T10:00:22;93554.44;;;5.83;100.00
11808;BME280;5961;42.640;23.380;2022-12-15T10:06:05;93542.41;;;5.74;100.00
11808;BME280;5961;42.640;23.380;2022-12-15T10:08:35;93547.78;;;5.77;100.00
11808;BME280;5961;42.640;23.380;2022-12-15T10:11:10;93545.78;;;5.83;100.00
11808;BME280;5961;42.640;23.380;2022-12-15T10:13:44;93540.66;;;5.86;100.00
11808;BME280;5961;42.640;23.380;2022-12-15T10:16:18;93543.59;;;5.85;100.00
11808;BME280;5961;42.640;23.380;2022-12-15T10:18:55;93535.09;;;5.88;100.00
11808;BME280;5961;42.640;23.380;2022-12-15T10:21:26;93537.28;;;5.86;100.00
11808;BME280;5961;42.640;23.380;2022-12-15T10:23:56;93478.72;;;5.46;100.00
11808;BME280;5961;42.640;23.380;2022-12-15T10:26:27;93530.13;;;5.86;100.00
11808;BME280;5961;42.640;23.380;2022-12-15T10:29:09;93537.56;;;5.93;100.00
11808;BME280;5961;42.640;23.380;2022-12-15T10:31:44;93550.88;;;5.96;100.00
11808;BME280;5961;42.640;23.380;2022-12-15T10:34:22;93561.25;;;6.01;100.00
11808;BME280;5961;42.640;23.380;2022-12-15T10:36:52;93552.28;;;5.94;100.00
11808;BME280;5961;42.640;23.380;2022-12-15T10:39:20;93560.66;;;5.96;100.00
11808;BME280;5961;42.640;23.380;2022-12-15T10:42:12;93568.41;;;6.01;100.00
11808;BME280;5961;42.640;23.380;2022-12-15T10:44:41;93560.03;;;5.99;100.00
11808;BME280;5961;42.640;23.380;2022-12-15T10:47:09;93562.38;;;6.00;100.00
11808;BME280;5961;42.640;23.380;2022-12-15T10:49:37;93542.78;;;6.01;100.00
11808;BME280;5961;42.640;23.380;2022-12-15T10:52:15;93556.47;;;6.03;100.00
11808;BME280;5961;42.640;23.380;2022-12-15T10:54:46;93565.59;;;6.06;100.00
11808;BME280;5961;42.640;23.380;2022-12-15T10:57:15;93561.88;;;6.07;100.00
11808;BME280;5961;42.640;23.380;2022-12-15T10:59:42;93566.84;;;6.08;100.00
11808;BME280;5961;42.640;23.380;2022-12-15T11:02:27;93565.75;;;6.10;100.00
11808;BME280;5961;42.640;23.380;2022-12-15T11:04:57;93565.75;;;6.10;100.00
11808;BME280;5961;42.640;23.380;2022-12-15T11:07:32;93546.53;;;6.00;100.00
11808;BME280;5961;42.640;23.380;2022-12-15T11:10:00;93558.44;;;6.15;100.00
11808;BME280;5961;42.640;23.380;2022-12-15T11:12:29;93556.09;;;6.22;100.00
11808;BME280;5961;42.640;23.380;2022-12-15T11:15:37;93551.28;;;6.24;100.00
11808;BME280;5961;42.640;23.380;2022-12-15T11:18:09;93560.41;;;6.27;100.00
11808;BME280;5961;42.640;23.380;2022-12-15T11:20:39;93531.63;;;6.04;100.00
11808;BME280;5961;42.640;23.380;2022-12-15T11:23:16;93558.09;;;6.25;100.00
11808;BME280;5961;42.640;23.380;2022-12-15T11:25:48;93554.34;;;6.26;100.00
11808;BME280;5961;42.640;23.380;2022-12-15T11:28:20;93565.06;;;6.30;100.00
11808;BME280;5961;42.640;23.380;2022-12-15T11:30:53;93562.38;;;6.38;100.00
11808;BME280;5961;42.640;23.380;2022-12-15T11:33:22;93564.97;;;6.47;100.00
11808;BME280;5961;42.640;23.380;2022-12-15T11:36:00;93559.06;;;6.50;100.00
11808;BME280;5961;42.640;23.380;2022-12-15T11:38:37;93570.69;;;6.57;100.00
11808;BME280;5961;42.640;23.380;2022-12-15T11:41:16;93554.72;;;6.54;100.00
11808;BME280;5961;42.640;23.380;2022-12-15T11:43:58;93565.06;;;6.68;100.00
11808;BME280;5961;42.640;23.380;2022-12-15T11:46:29;93570.06;;;6.60;100.00
11808;BME280;5961;42.640;23.380;2022-12-15T11:49:17;93567.38;;;6.69;100.00
11808;BME280;5961;42.640;23.380;2022-12-15T11:51:52;93583.50;;;6.76;100.00
11808;BME280;5961;42.640;23.380;2022-12-15T11:54:27;93579.09;;;6.80;100.00
11808;BME280;5961;42.640;23.380;2022-12-15T11:57:00;93578.16;;;6.85;100.00
11808;BME280;5961;42.640;23.380;2022-12-15T11:59:46;93581.47;;;7.02;100.00
11808;BME280;5961;42.640;23.380;2022-12-15T12:02:28;93586.13;;;7.05;100.00
11808;BME280;5961;42.640;23.380;2022-12-15T12:05:14;93578.91;;;7.14;100.00
11808;BME280;5961;42.640;23.380;2022-12-15T12:07:48;93595.81;;;7.22;100.00
11808;BME280;5961;42.640;23.380;2022-12-15T12:10:26;93609.97;;;7.17;100.00
11808;BME280;5961;42.640;23.380;2022-12-15T12:13:04;93593.75;;;7.28;100.00
11808;BME280;5961;42.640;23.380;2022-12-15T12:15:43;93593.13;;;7.31;100.00
11808;BME280;5961;42.640;23.380;2022-12-15T12:18:19;93593.13;;;7.31;100.00
11808;BME280;5961;42.640;23.380;2022-12-15T12:20:51;93602.28;;;7.33;100.00
11808;BME280;5961;42.640;23.380;2022-12-15T12:23:23;93573.06;;;7.30;100.00
11808;BME280;5961;42.640;23.380;2022-12-15T12:26:01;93604.56;;;7.35;100.00
11808;BME280;5961;42.640;23.380;2022-12-15T12:28:34;93597.34;;;7.44;100.00
11808;BME280;5961;42.640;23.380;2022-12-15T12:31:18;93606.78;;;7.53;100.00
11808;BME280;5961;42.640;23.380;2022-12-15T12:33:51;93616.63;;;7.65;100.00
11808;BME280;5961;42.640;23.380;2022-12-15T12:36:19;93611.41;;;7.77;100.00
11808;BME280;5961;42.640;23.380;2022-12-15T12:38:48;93625.91;;;7.92;100.00
11808;BME280;5961;42.640;23.380;2022-12-15T12:41:24;93615.41;;;8.16;100.00
11808;BME280;5961;42.640;23.380;2022-12-15T12:43:54;93649.63;;;8.21;100.00
11808;BME280;5961;42.640;23.380;2022-12-15T12:46:23;93613.63;;;8.41;100.00
11808;BME280;5961;42.640;23.380;2022-12-15T12:48:56;93636.50;;;8.45;100.00
11808;BME280;5961;42.640;23.380;2022-12-15T12:51:27;93628.69;;;8.61;100.00
11808;BME280;5961;42.640;23.380;2022-12-15T12:53:55;93638.63;;;8.64;100.00
11808;BME280;5961;42.640;23.380;2022-12-15T12:56:36;93630.03;;;8.79;100.00
11808;BME280;5961;42.640;23.380;2022-12-15T12:59:29;93636.66;;;8.73;100.00
11808;BME280;5961;42.640;23.380;2022-12-15T13:01:53;93598.97;;;8.55;100.00
11808;BME280;5961;42.640;23.380;2022-12-15T13:04:36;93650.56;;;8.82;100.00
11808;BME280;5961;42.640;23.380;2022-12-15T13:07:04;93643.72;;;8.81;100.00
11808;BME280;5961;42.640;23.380;2022-12-15T13:10:03;93651.66;;;8.69;100.00
11808;BME280;5961;42.640;23.380;2022-12-15T13:12:46;93615.97;;;8.42;100.00
11808;BME280;5961;42.640;23.380;2022-12-15T13:15:32;93636.59;;;8.37;100.00
11808;BME280;5961;42.640;23.380;2022-12-15T13:18:06;93632.38;;;8.36;100.00
11808;BME280;5961;42.640;23.380;2022-12-15T13:20:38;93660.16;;;8.30;100.00
11808;BME280;5961;42.640;23.380;2022-12-15T13:23:32;93654.44;;;8.19;100.00
11808;BME280;5961;42.640;23.380;2022-12-15T13:26:13;93615.09;;;7.85;100.00
11808;BME280;5961;42.640;23.380;2022-12-15T13:28:48;93656.63;;;8.05;100.00
11808;BME280;5961;42.640;23.380;2022-12-15T13:31:24;93650.75;;;7.99;100.00
11808;BME280;5961;42.640;23.380;2022-12-15T13:33:55;93655.78;;;7.92;100.00
11808;BME280;5961;42.640;23.380;2022-12-15T13:36:57;93654.91;;;7.88;100.00